Wind From: 11-12-2017 04:25 Until: 16:00 warning for: Wind Level: Orange info button

Power and phone distribution networks may be disrupted for relatively long periods., Roofs and chimneys can be damaged. , Tree branches may break. , Vehicles can be deported. , Traffic may be disrupted, particularly on secondary roads in forest areas. Limit your trips. , Limit your speed in highway driving, especially if you drive a vehicle or hitch sensitive to wind. , Do not go for walks in forests or along the coast., In town, be vigilant against possible falling objects., Do not work on roofs and do not touch any electrical line fallen on the ground., Store or secure sensitive objects to wind or likely to be damaged., Always install power generators outside buildings. 


Meteo18 Weather Cam more information Meteo18 Weather Cam


Thunder radar more information blitzortung!


Rain radar more information rain snow radar


Visit our other weather sites:

Template documentation
and downloads

And another site



Weather Underground History page Text

Daily Summary for June 5, 2017 Units:  English    Metric   Both
« Previous Day
Next Day »
Daily Weekly Monthly Yearly Custom
  High: Low: Average:
Temperature: 72.1 °F 51.4 °F 62.4 °F
Dew Point: 55.2 °F 49.3 °F 51.8 °F
Humidity: 94 % 46 % 70 %
Wind Speed: 14 mph 0 mph 2.7 mph
Wind Gust: 15 mph - -
Wind:- - SW
Pressure: 30.1 in 29.8 in -
Precipitation: 0 in    
Historical Graphs
 
 
Tabular Data for June 5, 2017
Time Temperature Dew Point Pressure Wind Wind Speed Wind Gust Humidity Rainfall Rate (Hourly)
00:02 53.8 °F 50.5 °F 30.1 in Calm     89 % 0 in
00:07 54 °F 50.5 °F 30.1 in Calm     88 % 0 in
00:12 53.8 °F 50.4 °F 30.1 in Calm     88 % 0 in
00:17 53.8 °F 50.4 °F 30.1 in Calm     88 % 0 in
00:22 53.2 °F 50 °F 30.1 in Calm     89 % 0 in
00:32 52.9 °F 50 °F 30.1 in Calm     90 % 0 in
00:42 52.9 °F 50.4 °F 30.1 in Calm     91 % 0 in
00:47 52.9 °F 50.4 °F 30.1 in Calm     91 % 0 in
00:52 52.5 °F 50 °F 30.1 in Calm     91 % 0 in
00:57 52.3 °F 49.8 °F 30.1 in Calm     91 % 0 in
01:02 52.3 °F 49.8 °F 30.1 in Calm     91 % 0 in
01:07 52.2 °F 49.6 °F 30.1 in Calm     91 % 0 in
01:12 52.2 °F 49.8 °F 30.1 in Calm     92 % 0 in
01:17 52.3 °F 50 °F 30.1 in Calm     92 % 0 in
01:22 52.5 °F 50.2 °F 30.1 in Calm     92 % 0 in
01:27 52.5 °F 50 °F 30.1 in Calm     91 % 0 in
01:32 52.5 °F 50.2 °F 30.1 in Calm     92 % 0 in
01:37 52.5 °F 50.2 °F 30.1 in Calm     92 % 0 in
01:42 52.5 °F 50.2 °F 30.1 in Calm     92 % 0 in
01:47 52.7 °F 50.2 °F 30.1 in Calm     91 % 0 in
01:52 52.9 °F 50.4 °F 30.1 in Calm     91 % 0 in
02:02 52.9 °F 50.4 °F 30.1 in Calm     91 % 0 in
02:12 53.1 °F 50.5 °F 30.1 in Calm     91 % 0 in
02:17 53.1 °F 50.5 °F 30.1 in Calm     91 % 0 in
02:22 53.2 °F 50.7 °F 30.1 in Calm     91 % 0 in
02:32 52.9 °F 50.4 °F 30.1 in Calm     91 % 0 in
02:37 52.9 °F 50.4 °F 30.1 in Calm     91 % 0 in
02:42 53.1 °F 50.5 °F 30.1 in Calm     91 % 0 in
02:47 53.1 °F 50.5 °F 30.1 in Calm     91 % 0 in
02:52 53.1 °F 50.5 °F 30.1 in Calm     91 % 0 in
02:57 53.1 °F 50.5 °F 30.1 in Calm     91 % 0 in
03:02 52.9 °F 50.4 °F 30.1 in Calm     91 % 0 in
03:07 52.9 °F 50.4 °F 30.1 in Calm     91 % 0 in
03:12 52.9 °F 50.4 °F 30.1 in Calm     91 % 0 in
03:17 52.7 °F 50.2 °F 30.1 in Calm     91 % 0 in
03:22 52.5 °F 50.2 °F 30.1 in Calm     92 % 0 in
03:32 52.3 °F 50 °F 30.1 in Calm     92 % 0 in
03:42 52.2 °F 49.8 °F 30.1 in Calm     92 % 0 in
03:47 52 °F 49.6 °F 30.1 in Calm     92 % 0 in
03:52 51.8 °F 49.6 °F 30.1 in Calm     92 % 0 in
03:57 51.8 °F 49.6 °F 30.1 in Calm     92 % 0 in
04:02 51.6 °F 49.5 °F 30.1 in Calm     92 % 0 in
04:07 51.6 °F 49.6 °F 30.1 in Calm     93 % 0 in
04:12 51.4 °F 49.5 °F 30.1 in Calm     93 % 0 in
04:17 51.6 °F 49.6 °F 30.1 in Calm     93 % 0 in
04:22 51.6 °F 49.6 °F 30.1 in Calm     93 % 0 in
04:27 51.6 °F 49.5 °F 30.1 in Calm     92 % 0 in
04:32 51.6 °F 49.5 °F 30.1 in Calm     92 % 0 in
04:37 51.4 °F 49.3 °F 30.1 in Calm     92 % 0 in
04:42 51.4 °F 49.5 °F 30.1 in Calm     93 % 0 in
04:47 51.4 °F 49.5 °F 30.1 in Calm     93 % 0 in
04:52 51.4 °F 49.5 °F 30.1 in Calm     93 % 0 in
04:57 51.4 °F 49.5 °F 30.1 in Calm     93 % 0 in
05:02 51.4 °F 49.5 °F 30.1 in Calm     93 % 0 in
05:12 51.4 °F 49.5 °F 30.1 in Calm     93 % 0 in
05:17 51.4 °F 49.5 °F 30.1 in Calm     93 % 0 in
05:22 51.4 °F 49.5 °F 30.1 in Calm     93 % 0 in
05:32 51.6 °F 49.6 °F 30.1 in Calm     93 % 0 in
05:42 51.6 °F 49.6 °F 30.1 in Calm     93 % 0 in
05:52 52 °F 49.6 °F 30.1 in Calm     92 % 0 in
05:57 51.8 °F 49.6 °F 30.1 in Calm     92 % 0 in
06:02 51.8 °F 49.6 °F 30.1 in Calm     92 % 0 in
06:12 51.6 °F 49.5 °F 30.1 in Calm     92 % 0 in
06:17 51.6 °F 49.6 °F 30.1 in Calm     93 % 0 in
06:22 51.4 °F 49.5 °F 30.1 in Calm     93 % 0 in
06:32 51.4 °F 49.5 °F 30.1 in Calm     93 % 0 in
06:42 51.4 °F 49.5 °F 30.1 in Calm     93 % 0 in
06:47 51.6 °F 50 °F 30.1 in Calm     94 % 0 in
06:52 51.6 °F 50 °F 30.1 in Calm     94 % 0 in
07:02 51.8 °F 50.2 °F 30.1 in Calm     94 % 0 in
07:07 52 °F 50.4 °F 30.1 in Calm     94 % 0 in
07:12 52 °F 50.4 °F 30.1 in Calm     94 % 0 in
07:17 52 °F 50.4 °F 30.1 in Calm     94 % 0 in
07:22 52.3 °F 50.7 °F 30.1 in Calm     94 % 0 in
07:32 53.1 °F 51.4 °F 30.1 in Calm     94 % 0 in
07:42 54.3 °F 52.7 °F 30.1 in Calm     94 % 0 in
07:47 54.9 °F 52.9 °F 30.1 in Calm     93 % 0 in
07:52 55 °F 52.7 °F 30.1 in Calm     92 % 0 in
07:57 55.2 °F 52.7 °F 30.1 in Calm     91 % 0 in
08:02 55.6 °F 53.1 °F 30.1 in Calm     91 % 0 in
08:12 57 °F 53.4 °F 30.1 in Calm     88 % 0 in
08:17 57.4 °F 52.9 °F 30.1 in Calm     85 % 0 in
08:22 57.9 °F 52.7 °F 30.1 in Calm     83 % 0 in
08:32 61.3 °F 55 °F 30.1 in Calm     80 % 0 in
08:37 62.1 °F 54 °F 30.1 in Calm     75 % 0 in
08:42 62.1 °F 54.3 °F 30.1 in Calm     76 % 0 in
08:47 61.9 °F 54.3 °F 30.1 in Calm   1 mph 76 % 0 in
08:52 61.9 °F 53.8 °F 30.1 in Calm   1 mph 75 % 0 in
09:02 61.3 °F 53.1 °F 30.1 in SW 4 mph 5 mph 74 % 0 in
09:12 61.5 °F 53.2 °F 30.1 in South 1 mph 5 mph 74 % 0 in
09:17 62.1 °F 53.6 °F 30.1 in SSW 1 mph 5 mph 74 % 0 in
09:22 62.4 °F 53.2 °F 30.1 in SSE 1 mph 4 mph 72 % 0 in
09:27 62.8 °F 53.2 °F 30.1 in SW 3 mph 4 mph 71 % 0 in
09:32 63.1 °F 52.9 °F 30.1 in SSW 6 mph 6 mph 69 % 0 in
09:37 63 °F 52.7 °F 30.1 in South 1 mph 7 mph 69 % 0 in
09:42 63.5 °F 53.1 °F 30.1 in WSW 4 mph 7 mph 69 % 0 in
09:47 63.9 °F 53.4 °F 30.1 in SSW 3 mph 7 mph 69 % 0 in
09:52 64.2 °F 53.1 °F 30 in SW 2 mph 6 mph 67 % 0 in
09:57 64.2 °F 53.4 °F 30 in SSW 4 mph 7 mph 68 % 0 in
10:02 64.4 °F 54 °F 30 in ENE 3 mph 7 mph 69 % 0 in
10:12 64.9 °F 53.2 °F 30 in Calm   6 mph 66 % 0 in
10:17 65.1 °F 54 °F 30 in SSW 2 mph 6 mph 67 % 0 in
10:22 65.5 °F 53.8 °F 30 in SW 2 mph 6 mph 66 % 0 in
10:27 65.7 °F 54 °F 30 in Calm   5 mph 66 % 0 in
10:32 65.8 °F 52 °F 30 in SSW 8 mph 8 mph 61 % 0 in
10:37 65.7 °F 51.8 °F 30 in SSW 2 mph 9 mph 61 % 0 in
10:42 65.8 °F 52 °F 30 in SSW 3 mph 9 mph 61 % 0 in
10:47 66.6 °F 53.1 °F 30 in SSW 6 mph 9 mph 62 % 0 in
10:52 66.4 °F 52.2 °F 30 in WSW 2 mph 8 mph 60 % 0 in
10:57 66.9 °F 53.1 °F 30 in SW 5 mph 7 mph 61 % 0 in
11:02 66.9 °F 53.1 °F 30 in SSW 1 mph 9 mph 61 % 0 in
11:12 67.3 °F 51.4 °F 30 in SW 6 mph 9 mph 57 % 0 in
11:17 67.3 °F 51.1 °F 30 in SSW 6 mph 10 mph 56 % 0 in
11:22 67.5 °F 50.7 °F 30 in SSW 7 mph 10 mph 55 % 0 in
11:27 67.5 °F 50.2 °F 30 in SSW 5 mph 10 mph 54 % 0 in
11:32 67.8 °F 52 °F 30 in South 3 mph 9 mph 57 % 0 in
11:37 68.5 °F 53.2 °F 30 in South 3 mph 9 mph 58 % 0 in
11:42 68.4 °F 51.6 °F 30 in SW 5 mph 7 mph 55 % 0 in
11:47 67.8 °F 51.6 °F 30 in WSW 3 mph 8 mph 56 % 0 in
11:52 67.6 °F 51.4 °F 30 in SW 4 mph 9 mph 56 % 0 in
11:57 68 °F 52.7 °F 30 in South 3 mph 9 mph 58 % 0 in
12:02 68.5 °F 52.7 °F 30 in WSW 7 mph 12 mph 57 % 0 in
12:07 68.5 °F 51.3 °F 30 in SW 3 mph 12 mph 54 % 0 in
12:12 68.7 °F 52 °F 30 in SSW 5 mph 12 mph 55 % 0 in
12:17 69.3 °F 52.3 °F 30 in WSW 6 mph 10 mph 55 % 0 in
12:22 69.3 °F 52.3 °F 30 in West 1 mph 10 mph 55 % 0 in
12:27 68.4 °F 50.5 °F 30 in SW 5 mph 8 mph 53 % 0 in
12:32 68.4 °F 50 °F 30 in NW 1 mph 8 mph 52 % 0 in
12:42 67.8 °F 51.1 °F 30 in SSW 8 mph 8 mph 55 % 0 in
12:47 68.4 °F 50.5 °F 30 in SW 6 mph 8 mph 53 % 0 in
12:52 68.5 °F 51.3 °F 30 in SW 6 mph 8 mph 54 % 0 in
12:57 68.2 °F 49.3 °F 30 in WSW 5 mph 10 mph 51 % 0 in
13:02 67.8 °F 50.5 °F 30 in SW 5 mph 10 mph 54 % 0 in
13:07 67.8 °F 52 °F 30 in WSW 3 mph 9 mph 57 % 0 in
13:12 67.6 °F 52.9 °F 30 in SW 5 mph 9 mph 59 % 0 in
13:17 68 °F 53.1 °F 30 in SW 3 mph 8 mph 59 % 0 in
13:22 68.5 °F 52.7 °F 30 in South 5 mph 8 mph 57 % 0 in
13:27 69.3 °F 50.9 °F 30 in WSW 6 mph 8 mph 52 % 0 in
13:32 69.6 °F 51.8 °F 30 in SSW 8 mph 8 mph 53 % 0 in
13:37 69.4 °F 51.6 °F 30 in SSW 7 mph 11 mph 53 % 0 in
13:42 69.1 °F 50.7 °F 30 in SW 2 mph 11 mph 52 % 0 in
13:47 68.9 °F 51.1 °F 30 in SSW 7 mph 11 mph 53 % 0 in
13:52 68.5 °F 51.3 °F 30 in SSW 3 mph 9 mph 54 % 0 in
13:57 68.7 °F 52 °F 30 in SSW 1 mph 9 mph 55 % 0 in
14:02 69.1 °F 52.7 °F 30 in SW 1 mph 9 mph 56 % 0 in
14:07 68.9 °F 51.1 °F 30 in NW 3 mph 7 mph 53 % 0 in
14:12 68.7 °F 52 °F 30 in SW 7 mph 7 mph 55 % 0 in
14:17 68.4 °F 52.5 °F 30 in West 3 mph 10 mph 57 % 0 in
14:22 69.1 °F 53.2 °F 30 in WSW 8 mph 10 mph 57 % 0 in
14:27 69.3 °F 51.4 °F 30 in WSW 4 mph 12 mph 53 % 0 in
14:32 69.4 °F 51.6 °F 30 in WSW 3 mph 12 mph 53 % 0 in
14:37 69.6 °F 52.2 °F 30 in WSW 9 mph 12 mph 54 % 0 in
14:42 70 °F 52.5 °F 30 in SW 1 mph 12 mph 54 % 0 in
14:47 70.2 °F 52.2 °F 30 in West 4 mph 12 mph 53 % 0 in
14:52 70.5 °F 54.1 °F 30 in SW 5 mph 12 mph 56 % 0 in
14:57 70.7 °F 51.6 °F 30 in West 3 mph 12 mph 51 % 0 in
15:02 70.9 °F 52.9 °F 30 in SW 14 mph 14 mph 53 % 0 in
15:07 71.2 °F 52.7 °F 30 in South 2 mph 14 mph 52 % 0 in
15:12 70.3 °F 51.8 °F 30 in SW 4 mph 14 mph 52 % 0 in
15:17 70.2 °F 52.7 °F 30 in West 2 mph 14 mph 54 % 0 in
15:22 70.2 °F 51.8 °F 30 in WSW 4 mph 13 mph 52 % 0 in
15:27 70.3 °F 51.8 °F 30 in SW 13 mph 13 mph 52 % 0 in
15:32 70.2 °F 51.3 °F 30 in West 7 mph 15 mph 51 % 0 in
15:42 71.2 °F 50 °F 29.9 in WSW 10 mph 15 mph 47 % 0 in
15:47 71.8 °F 49.8 °F 29.9 in West 5 mph 13 mph 46 % 0 in
15:52 71.8 °F 50.5 °F 29.9 in SW 10 mph 14 mph 47 % 0 in
15:57 71.8 °F 51.6 °F 29.9 in West 8 mph 14 mph 49 % 0 in
16:02 71.4 °F 50.7 °F 29.9 in WSW 6 mph 15 mph 48 % 0 in
16:07 70.9 °F 51.8 °F 29.9 in SW 7 mph 15 mph 51 % 0 in
16:12 70.7 °F 52.2 °F 29.9 in South 5 mph 15 mph 52 % 0 in
16:17 70.9 °F 51.3 °F 29.9 in SW 5 mph 12 mph 50 % 0 in
16:22 71.4 °F 51.8 °F 29.9 in SW 4 mph 12 mph 50 % 0 in
16:27 71.6 °F 52 °F 29.9 in WSW 5 mph 11 mph 50 % 0 in
16:32 71.2 °F 51.6 °F 29.9 in West 4 mph 11 mph 50 % 0 in
16:37 70.9 °F 50.7 °F 29.9 in SW 7 mph 13 mph 49 % 0 in
16:42 70.7 °F 52.2 °F 29.9 in WSW 1 mph 13 mph 52 % 0 in
16:47 71.1 °F 50.9 °F 29.9 in WSW 3 mph 13 mph 49 % 0 in
16:52 71.4 °F 52.3 °F 29.9 in SSW 2 mph 9 mph 51 % 0 in
16:57 71.8 °F 51.1 °F 29.9 in SW 7 mph 13 mph 48 % 0 in
17:02 71.8 °F 50.5 °F 29.9 in SSW 4 mph 13 mph 47 % 0 in
17:12 72.1 °F 52 °F 29.9 in SW 7 mph 14 mph 49 % 0 in
17:17 72 °F 50.7 °F 29.9 in WSW 6 mph 14 mph 47 % 0 in
17:22 72.1 °F 50.7 °F 29.9 in SW 10 mph 14 mph 47 % 0 in
17:27 71.8 °F 50.5 °F 29.9 in SW 5 mph 13 mph 47 % 0 in
17:32 71.6 °F 50.9 °F 29.9 in SSW 6 mph 14 mph 48 % 0 in
17:37 71.6 °F 49.6 °F 29.9 in WSW 7 mph 14 mph 46 % 0 in
17:42 71.8 °F 50.5 °F 29.9 in WSW 7 mph 12 mph 47 % 0 in
17:47 72 °F 50.7 °F 29.9 in West 10 mph 13 mph 47 % 0 in
17:52 71.8 °F 51.6 °F 29.9 in SW 3 mph 13 mph 49 % 0 in
17:57 71.4 °F 50.7 °F 29.9 in West 6 mph 13 mph 48 % 0 in
18:02 71.4 °F 51.3 °F 29.9 in SW 2 mph 12 mph 49 % 0 in
18:07 70.9 °F 50.2 °F 29.9 in SW 3 mph 10 mph 48 % 0 in
18:12 71.1 °F 50.9 °F 29.9 in SW 4 mph 10 mph 49 % 0 in
18:17 71.1 °F 51.4 °F 29.9 in SW 8 mph 10 mph 50 % 0 in
18:22 70.9 °F 51.3 °F 29.9 in SW 7 mph 14 mph 50 % 0 in
18:32 70.5 °F 52 °F 29.9 in SW 5 mph 14 mph 52 % 0 in
18:42 71.1 °F 52.5 °F 29.9 in SSE 8 mph 12 mph 52 % 0 in
18:47 70.9 °F 51.3 °F 29.9 in SW 11 mph 12 mph 50 % 0 in
18:52 70.2 °F 51.3 °F 29.9 in WSW 7 mph 14 mph 51 % 0 in
18:57 69.8 °F 50.9 °F 29.9 in WSW 6 mph 14 mph 51 % 0 in
19:02 69.6 °F 52.2 °F 29.9 in SSE 3 mph 14 mph 54 % 0 in
19:07 70.2 °F 53.8 °F 29.9 in SW 6 mph 11 mph 56 % 0 in
19:12 69.8 °F 52.3 °F 29.9 in West 6 mph 11 mph 54 % 0 in
19:17 69.6 °F 51.8 °F 29.9 in WSW 5 mph 13 mph 53 % 0 in
19:22 69.4 °F 52.2 °F 29.9 in SSW 3 mph 13 mph 54 % 0 in
19:27 69.3 °F 52.3 °F 29.9 in SW 2 mph 11 mph 55 % 0 in
19:32 69.1 °F 53.6 °F 29.9 in SW 3 mph 8 mph 58 % 0 in
19:37 68.7 °F 53.8 °F 29.9 in SSW 5 mph 8 mph 59 % 0 in
19:42 68.7 °F 54.3 °F 29.9 in SW 4 mph 8 mph 60 % 0 in
19:47 68.5 °F 54.1 °F 29.9 in SW 4 mph 8 mph 60 % 0 in
19:52 68.4 °F 54.3 °F 29.9 in WSW 5 mph 8 mph 61 % 0 in
19:57 68.2 °F 54.1 °F 29.9 in SW 3 mph 8 mph 61 % 0 in
20:02 67.8 °F 55.2 °F 29.9 in SW 3 mph 7 mph 64 % 0 in
20:07 67.6 °F 54.7 °F 29.8 in SSW 2 mph 7 mph 63 % 0 in
20:12 67.6 °F 54.7 °F 29.8 in SW 2 mph 7 mph 63 % 0 in
20:17 68.2 °F 54.7 °F 29.8 in SSW 6 mph 7 mph 62 % 0 in
20:22 68.4 °F 54.3 °F 29.8 in SW 4 mph 7 mph 61 % 0 in
20:27 68.2 °F 55 °F 29.8 in SW 6 mph 7 mph 63 % 0 in
20:32 67.6 °F 54.7 °F 29.8 in SSW 4 mph 7 mph 63 % 0 in
20:37 67.5 °F 54.5 °F 29.8 in SSW 6 mph 7 mph 63 % 0 in
20:42 67.3 °F 54.7 °F 29.8 in SW 5 mph 7 mph 64 % 0 in
20:52 66.4 °F 54.3 °F 29.8 in SW 4 mph 7 mph 65 % 0 in
20:57 66.2 °F 54.1 °F 29.8 in SW 5 mph 5 mph 65 % 0 in
21:02 66 °F 54 °F 29.8 in SW 1 mph 7 mph 65 % 0 in
21:07 65.8 °F 53.8 °F 29.8 in WSW 4 mph 7 mph 65 % 0 in
21:12 65.7 °F 53.6 °F 29.8 in WSW 4 mph 7 mph 65 % 0 in
21:17 65.5 °F 54.3 °F 29.8 in SW 2 mph 6 mph 67 % 0 in
21:22 64.8 °F 54.7 °F 29.8 in SSW 3 mph 6 mph 70 % 0 in
21:32 63.5 °F 54.3 °F 29.8 in SSW 4 mph 4 mph 72 % 0 in
21:37 63.5 °F 54.3 °F 29.8 in SW 2 mph 5 mph 72 % 0 in
21:42 63.3 °F 53.8 °F 29.8 in SSW 2 mph 5 mph 71 % 0 in
21:47 63.1 °F 54 °F 29.8 in SSW 1 mph 5 mph 72 % 0 in
21:52 62.8 °F 54 °F 29.8 in SW 2 mph 5 mph 73 % 0 in
21:57 62.8 °F 53.6 °F 29.8 in WSW 3 mph 5 mph 72 % 0 in
22:02 62.8 °F 53.2 °F 29.8 in SSW 1 mph 6 mph 71 % 0 in
22:12 62.1 °F 53.2 °F 29.8 in SSW 1 mph 6 mph 73 % 0 in
22:17 61.5 °F 53.6 °F 29.8 in SSW 2 mph 4 mph 75 % 0 in
22:22 61 °F 53.4 °F 29.8 in SW 2 mph 3 mph 76 % 0 in
22:27 60.8 °F 53.6 °F 29.8 in SSW 2 mph 3 mph 77 % 0 in
22:32 60.6 °F 53.4 °F 29.8 in SSW 1 mph 3 mph 77 % 0 in
22:37 60.4 °F 53.2 °F 29.8 in SW 1 mph 3 mph 77 % 0 in
22:42 60.4 °F 53.2 °F 29.8 in SW 2 mph 2 mph 77 % 0 in
22:52 60.4 °F 52.9 °F 29.8 in SSW 2 mph 4 mph 76 % 0 in
22:57 60.1 °F 52.9 °F 29.8 in Calm   4 mph 77 % 0 in
23:02 59.7 °F 52.5 °F 29.8 in Calm   3 mph 77 % 0 in
23:12 59.2 °F 52.7 °F 29.8 in Calm   2 mph 79 % 0 in
23:17 58.8 °F 52.3 °F 29.8 in Calm   2 mph 79 % 0 in
23:22 58.5 °F 52.3 °F 29.8 in Calm   1 mph 80 % 0 in
23:27 58.1 °F 52.3 °F 29.8 in SSW 1 mph 1 mph 81 % 0 in
23:32 57.9 °F 52.5 °F 29.8 in SSW 2 mph 2 mph 82 % 0 in
23:37 57.9 °F 52.5 °F 29.8 in SSW 2 mph 4 mph 82 % 0 in
23:42 57.7 °F 52.3 °F 29.8 in Calm   4 mph 82 % 0 in
23:47 57.7 °F 52.3 °F 29.8 in SW 2 mph 4 mph 82 % 0 in
23:52 57.7 °F 52.3 °F 29.8 in SW 2 mph 4 mph 82 % 0 in
23:57 57.6 °F 52.5 °F 29.8 in SSW 1 mph 4 mph 83 % 0 in
Meteo18
Compliments of Weather Underground - 4 mb

Script developed by  Jim McMurry - jmcmurry@mwt.net Adapted for the template by  Wim van der Kuil - Leuven-Template.eu

You find our weather info also at:

European Weather Network

Weather Underground

Equipment we use:

Weather-station
Davis Vue

Weather-program
Meteohub

Weather-server
Raspberry PI 2 B+

Provider
1 and 1

Davis Vue

Meteohub

Raspberry PI 2 B+

1 and 1